Terminal Aerodrome Forecast
Issued by NWS

Home | Current Version | Previous Version | Text Only | Print | Product List | Glossary On
Versions: 1 2 3 4 5 6 7 8 9 10 11 12 13 14 15 16 17 18 19
000
FTUS41 KGYX 182300
TAFLEB
TAF
KLEB 182320Z 1900/1924 19005KT P6SM SCT120
     FM190500 VRB03KT P6SM SCT030 BKN050 OVC080
     FM191200 31012G22KT P6SM SCT050 SCT120
     FM191700 33017G27KT P6SM SKC=

USA.gov is the U.S. government's official web portal to all federal, state and local government web resources and services.